Time;durP1;ratioP1;P1;durP2;ratioP2;P2;SDS_P1;SDS_P2;PMS_P1;PMS_P2;Temp;Humidity;BMP_temperature;BMP_pressure;BME280_temperature;BME280_humidity;BME280_pressure;Samples;Min_cycle;Max_cycle;Signal;HPM_P1;HPM_P2
2022/01/06 00:01:50;;;;;;;20.98;9.25;;;;;;;14.34;66.09;99868.13;5042299;28;20026;-75
2022/01/06 00:04:15;;;;;;;20.00;8.75;;;;;;;14.34;66.44;99868.94;5041387;28;20419;-74
2022/01/06 00:06:42;;;;;;;17.05;7.63;;;;;;;14.32;66.80;99880.91;5042256;28;20024;-74
2022/01/06 00:09:09;;;;;;;17.17;7.95;;;;;;;14.35;66.78;99886.03;5021699;28;20036;-74
2022/01/06 00:11:35;;;;;;;18.02;7.18;;;;;;;14.28;66.73;99869.59;5042906;28;20035;-75
2022/01/06 00:24:15;;;;;;;12.98;7.38;;;;;;;14.48;66.46;99889.09;5040186;28;20067;-75
2022/01/06 00:26:41;;;;;;;15.88;7.88;;;;;;;14.49;66.53;99893.50;5044114;28;20108;-75
2022/01/06 00:29:07;;;;;;;14.20;7.80;;;;;;;14.50;66.40;99896.03;5043720;28;20511;-75
2022/01/06 00:31:34;;;;;;;16.73;9.13;;;;;;;14.49;66.23;99893.50;5042361;28;20025;-75
2022/01/06 00:34:00;;;;;;;19.20;7.95;;;;;;;14.45;66.42;99889.44;5042080;28;20370;-73
2022/01/06 00:36:25;;;;;;;11.15;7.60;;;;;;;14.48;66.22;99902.63;5043411;28;20029;-74
2022/01/06 00:38:51;;;;;;;20.63;8.15;;;;;;;14.46;66.49;99900.06;5042038;28;20031;-74
2022/01/06 00:41:16;;;;;;;21.48;7.78;;;;;;;14.48;66.46;99902.63;5042950;28;20025;-74
2022/01/06 00:43:42;;;;;;;13.98;7.90;;;;;;;14.49;66.50;99901.63;5041624;28;20057;-74
2022/01/06 00:46:07;;;;;;;15.52;8.52;;;;;;;14.48;66.27;99908.03;5038308;28;20443;-74
2022/01/06 00:48:33;;;;;;;13.32;7.18;;;;;;;14.47;66.47;99909.03;5036794;28;20462;-73
2022/01/06 00:50:58;;;;;;;13.18;7.55;;;;;;;14.39;66.62;99899.06;5037572;28;20481;-74
2022/01/06 00:53:24;;;;;;;13.85;7.70;;;;;;;14.45;66.36;99909.22;5039841;28;20029;-75
2022/01/06 00:55:49;;;;;;;13.25;7.85;;;;;;;14.40;66.51;99897.22;5037100;28;20041;-74
2022/01/06 00:58:15;;;;;;;13.68;8.65;;;;;;;14.41;66.78;99901.59;5041495;28;20450;-73
2022/01/06 01:00:41;;;;;;;14.57;7.00;;;;;;;14.35;66.87;99903.09;5041319;28;20048;-74
2022/01/06 01:03:18;;;;;;;16.33;8.50;;;;;;;14.42;66.66;99900.59;5042987;28;20490;-74
2022/01/06 01:05:46;;;;;;;16.00;8.10;;;;;;;14.39;66.71;99903.63;5043195;28;20047;-75
2022/01/06 01:08:13;;;;;;;12.85;7.22;;;;;;;14.30;66.78;99885.66;5041321;28;20021;-75
2022/01/06 01:10:39;;;;;;;18.67;7.88;;;;;;;14.33;66.97;99899.72;5032608;28;20082;-75
2022/01/06 01:13:11;;;;;;;17.75;8.35;;;;;;;14.19;67.00;99868.72;5040019;28;20055;-74
2022/01/06 01:15:45;;;;;;;18.37;8.43;;;;;;;14.29;67.20;99897.47;5039278;28;20117;-73
2022/01/06 01:18:13;;;;;;;20.13;9.07;;;;;;;14.23;67.01;99877.34;5021095;28;20268;-74
2022/01/06 01:20:38;;;;;;;14.82;7.38;;;;;;;14.34;66.95;99889.75;5041140;28;20088;-74
2022/01/06 01:23:04;;;;;;;15.30;7.68;;;;;;;14.32;66.86;99889.03;5042325;28;20108;-74
2022/01/06 01:25:29;;;;;;;19.33;8.52;;;;;;;14.34;67.06;99889.75;5040543;28;20471;-73
2022/01/06 01:27:56;;;;;;;14.90;8.18;;;;;;;14.34;67.15;99884.34;5041407;28;20028;-73
2022/01/06 01:30:30;;;;;;;18.38;8.25;;;;;;;14.34;67.02;99887.06;5041914;28;20044;-74
2022/01/06 01:32:56;;;;;;;25.27;8.23;;;;;;;14.32;66.92;99886.31;5027529;28;20509;-75
2022/01/06 01:35:22;;;;;;;11.75;7.10;;;;;;;14.22;67.10;99870.25;5030722;28;20506;-73
2022/01/06 01:37:47;;;;;;;18.92;9.65;;;;;;;14.29;67.09;99875.84;5030504;28;20017;-73
2022/01/06 01:40:13;;;;;;;13.35;7.45;;;;;;;14.33;67.14;99879.94;5030403;28;20024;-73
2022/01/06 01:42:40;;;;;;;16.23;7.65;;;;;;;14.35;66.87;99876.06;5030502;28;20151;-75
2022/01/06 01:45:06;;;;;;;14.98;7.82;;;;;;;14.36;66.83;99880.47;5030343;28;20104;-74
2022/01/06 01:47:40;;;;;;;11.70;6.57;;;;;;;14.40;66.68;99878.28;5037023;28;20021;-73
2022/01/06 01:50:18;;;;;;;23.77;8.25;;;;;;;14.40;66.63;99878.28;5038482;28;20509;-73
2022/01/06 01:52:49;;;;;;;16.88;7.50;;;;;;;14.40;66.72;99884.50;5035752;28;20503;-73
2022/01/06 01:55:22;;;;;;;20.35;9.15;;;;;;;14.41;66.72;99879.94;5038292;28;20100;-73
2022/01/06 01:57:48;;;;;;;16.90;7.93;;;;;;;14.38;66.44;99864.91;5035744;28;20025;-74
2022/01/06 02:00:15;;;;;;;16.80;7.95;;;;;;;14.43;66.57;99872.53;5030513;28;20021;-73
2022/01/06 02:02:42;;;;;;;12.98;6.97;;;;;;;14.42;66.43;99866.28;5030452;28;20017;-73
2022/01/06 02:05:08;;;;;;;16.02;7.55;;;;;;;14.40;66.63;99867.47;5030684;28;20104;-74
2022/01/06 02:07:35;;;;;;;16.65;7.20;;;;;;;14.41;66.69;99874.53;5030363;28;20017;-73
2022/01/06 02:10:01;;;;;;;15.18;8.27;;;;;;;14.42;66.55;99873.53;5034885;28;20021;-73
2022/01/06 02:12:32;;;;;;;12.95;8.10;;;;;;;14.41;66.35;99869.13;5034407;28;20029;-74
2022/01/06 02:14:58;;;;;;;16.27;7.00;;;;;;;14.44;66.22;99879.59;5015374;28;20049;-74
2022/01/06 02:17:23;;;;;;;13.23;7.70;;;;;;;14.47;66.27;99879.28;5010855;28;20034;-74
2022/01/06 02:19:53;;;;;;;11.52;6.70;;;;;;;14.47;66.16;99888.25;5010892;28;20427;-74
2022/01/06 02:22:19;;;;;;;13.63;7.38;;;;;;;14.42;66.17;99887.06;5009819;28;20041;-75
2022/01/06 02:24:44;;;;;;;14.50;6.70;;;;;;;14.48;66.07;99889.09;5010770;28;20056;-75
2022/01/06 02:27:10;;;;;;;20.15;7.50;;;;;;;14.47;65.90;99890.94;5012351;28;20045;-74
2022/01/06 02:29:35;;;;;;;12.73;7.30;;;;;;;14.49;65.78;99882.69;5023732;28;20122;-74
2022/01/06 02:32:07;;;;;;;15.98;7.88;;;;;;;14.57;65.95;99901.63;5020217;28;20021;-74
2022/01/06 02:34:32;;;;;;;15.87;7.97;;;;;;;14.60;65.79;99902.13;5022418;28;20032;-74
2022/01/06 02:36:58;;;;;;;11.20;6.05;;;;;;;14.62;65.54;99899.25;5020834;28;20026;-74
2022/01/06 02:39:23;;;;;;;15.70;7.13;;;;;;;14.57;65.50;99898.91;5025898;28;20398;-74
2022/01/06 02:41:49;;;;;;;17.00;7.10;;;;;;;14.58;65.65;99887.09;5016983;28;20018;-74
2022/01/06 02:44:14;;;;;;;14.65;6.47;;;;;;;14.54;65.86;99881.16;5022361;28;20026;-74
2022/01/06 02:46:40;;;;;;;16.55;7.55;;;;;;;14.56;65.61;99894.50;5024370;28;20022;-74
2022/01/06 02:49:05;;;;;;;13.90;7.43;;;;;;;14.56;65.73;99895.34;5020067;28;20092;-74
2022/01/06 02:51:31;;;;;;;14.95;7.18;;;;;;;14.57;65.71;99890.78;5023939;28;20026;-74
2022/01/06 02:53:56;;;;;;;14.82;6.70;;;;;;;14.58;65.75;99892.50;5020562;28;20094;-73
2022/01/06 02:56:22;;;;;;;19.75;7.95;;;;;;;14.56;65.77;99894.50;5025513;28;20079;-74
2022/01/06 02:58:47;;;;;;;12.55;6.50;;;;;;;14.57;65.80;99886.22;5019539;28;20030;-73
2022/01/06 03:01:13;;;;;;;12.07;6.63;;;;;;;14.61;65.79;99889.44;5022646;28;20017;-73
2022/01/06 03:03:38;;;;;;;15.73;7.47;;;;;;;14.60;65.84;99896.72;5023343;28;20557;-73
2022/01/06 03:06:04;;;;;;;16.45;8.05;;;;;;;14.56;66.03;99889.94;5019422;28;20026;-74
2022/01/06 03:08:29;;;;;;;11.68;6.43;;;;;;;14.63;65.90;99895.53;5025294;28;20446;-73
2022/01/06 03:10:56;;;;;;;15.88;7.25;;;;;;;14.68;65.74;99887.75;5020127;28;20025;-75
2022/01/06 03:13:22;;;;;;;11.55;6.43;;;;;;;14.69;65.80;99889.44;5022557;28;20014;-75
2022/01/06 03:15:47;;;;;;;21.08;7.65;;;;;;;14.64;66.05;99886.41;5039917;28;20482;-75
2022/01/06 03:18:13;;;;;;;11.18;7.28;;;;;;;14.60;66.08;99885.03;5039691;28;20168;-75
2022/01/06 03:20:38;;;;;;;19.80;7.65;;;;;;;14.56;66.23;99878.28;5039702;28;20036;-74
2022/01/06 03:23:04;;;;;;;16.33;7.05;;;;;;;14.55;66.41;99879.31;5038268;28;20052;-74
2022/01/06 03:25:29;;;;;;;17.27;7.88;;;;;;;14.53;66.29;99886.72;5038125;28;20029;-75
2022/01/06 03:27:55;;;;;;;15.13;6.93;;;;;;;14.56;66.52;99886.38;5039639;28;20368;-74
2022/01/06 03:30:22;;;;;;;19.48;7.22;;;;;;;14.55;66.39;99884.72;5040690;28;20021;-74
2022/01/06 03:32:48;;;;;;;14.73;7.00;;;;;;;14.54;66.33;99880.31;5038409;28;20105;-74
2022/01/06 03:35:18;;;;;;;20.45;7.40;;;;;;;14.54;66.56;99880.31;5024473;28;20025;-74
2022/01/06 03:37:44;;;;;;;18.92;6.43;;;;;;;14.41;66.53;99874.53;5039345;28;20549;-74
2022/01/06 03:40:10;;;;;;;15.35;7.45;;;;;;;14.45;66.61;99874.03;5035163;28;20029;-74
2022/01/06 03:42:37;;;;;;;17.55;7.10;;;;;;;14.45;66.85;99886.72;5040122;28;20382;-75
2022/01/06 03:45:05;;;;;;;20.13;7.82;;;;;;;14.41;67.03;99880.81;5036190;28;20034;-74
2022/01/06 03:47:31;;;;;;;11.70;6.95;;;;;;;14.39;67.20;99881.97;5036267;28;20014;-74
2022/01/06 03:49:56;;;;;;;17.17;7.30;;;;;;;14.38;67.34;99885.69;5043501;28;20451;-74
2022/01/06 03:52:22;;;;;;;24.10;8.18;;;;;;;14.35;67.47;99891.44;5042314;28;20063;-74
2022/01/06 03:54:47;;;;;;;20.08;8.25;;;;;;;14.33;67.57;99893.47;5041146;28;20028;-74
2022/01/06 03:57:13;;;;;;;14.82;7.35;;;;;;;14.28;67.54;99891.22;5041362;28;20021;-74
2022/01/06 03:59:38;;;;;;;17.65;8.43;;;;;;;14.29;67.53;99892.06;5039550;28;20040;-74
2022/01/06 04:02:04;;;;;;;17.63;8.65;;;;;;;14.31;67.68;99890.06;5039333;28;21537;-74
2022/01/06 04:04:30;;;;;;;20.20;7.10;;;;;;;14.32;67.68;99897.16;5037844;28;20098;-74
2022/01/06 04:06:55;;;;;;;16.00;9.30;;;;;;;14.34;67.63;99892.47;5037995;28;20029;-74
2022/01/06 04:09:21;;;;;;;21.25;8.82;;;;;;;14.36;67.64;99898.56;5037489;28;20132;-74
2022/01/06 04:11:46;;;;;;;18.55;8.10;;;;;;;14.34;67.56;99906.00;5039072;28;20033;-74
2022/01/06 04:14:12;;;;;;;24.33;9.00;;;;;;;14.36;67.58;99903.97;5038338;28;20043;-74
2022/01/06 04:16:39;;;;;;;20.27;10.18;;;;;;;14.39;67.44;99900.91;5038937;28;20375;-74
2022/01/06 04:19:06;;;;;;;16.80;10.10;;;;;;;14.43;67.41;99905.00;5037489;28;20041;-73
2022/01/06 04:21:31;;;;;;;26.80;11.20;;;;;;;14.44;67.43;99907.50;5037424;28;20014;-74
2022/01/06 04:23:57;;;;;;;27.45;10.98;;;;;;;14.47;67.10;99906.34;5037406;28;20017;-75
2022/01/06 04:26:22;;;;;;;38.55;11.82;;;;;;;14.50;66.89;99906.00;5033428;28;20029;-75
2022/01/06 04:28:47;;;;;;;22.80;10.00;;;;;;;14.50;66.93;99911.41;5033135;28;20017;-73
2022/01/06 04:31:13;;;;;;;24.92;10.32;;;;;;;14.52;66.81;99909.41;5033371;28;20025;-73
2022/01/06 04:33:39;;;;;;;30.27;9.82;;;;;;;14.50;66.91;99923.09;5016336;28;20021;-73
2022/01/06 04:36:05;;;;;;;22.38;9.65;;;;;;;14.51;66.90;99924.78;5033039;28;20080;-75
2022/01/06 04:38:31;;;;;;;19.10;8.88;;;;;;;14.53;66.86;99919.19;5033325;28;20025;-73
2022/01/06 04:40:57;;;;;;;19.00;9.18;;;;;;;14.50;66.66;99927.66;5033015;28;20435;-74
2022/01/06 04:43:23;;;;;;;22.38;9.98;;;;;;;14.52;66.87;99925.63;5032741;28;20017;-74
2022/01/06 04:45:48;;;;;;;19.25;9.10;;;;;;;14.53;66.84;99938.13;5024492;28;20491;-73
2022/01/06 04:48:14;;;;;;;24.13;11.27;;;;;;;14.52;66.93;99936.47;5032756;28;20112;-74
2022/01/06 04:50:40;;;;;;;29.30;10.30;;;;;;;14.50;66.89;99938.47;5032179;28;20459;-74
2022/01/06 04:53:06;;;;;;;26.13;9.82;;;;;;;14.50;66.79;99930.34;5025004;28;20108;-79
2022/01/06 04:55:32;;;;;;;27.77;10.60;;;;;;;14.45;66.96;99925.47;5031375;28;20827;-76
2022/01/06 04:57:58;;;;;;;25.30;12.13;;;;;;;14.45;66.95;99938.13;5032573;28;20495;-74
2022/01/06 05:00:24;;;;;;;22.25;11.55;;;;;;;14.43;67.26;99923.94;5032270;28;20079;-74
2022/01/06 05:02:49;;;;;;;30.15;12.88;;;;;;;14.41;67.40;99936.75;5032319;28;20026;-74
2022/01/06 05:05:15;;;;;;;23.52;13.35;;;;;;;14.40;67.73;99937.78;5032421;28;20022;-74
2022/01/06 05:07:41;;;;;;;20.00;10.35;;;;;;;14.27;67.62;99915.75;5031963;28;20025;-74
2022/01/06 05:10:09;;;;;;;21.23;12.80;;;;;;;14.37;67.70;99938.94;5032317;28;20093;-74
2022/01/06 05:12:44;;;;;;;24.73;11.68;;;;;;;14.36;67.89;99937.28;5032074;28;20029;-74
2022/01/06 05:15:12;;;;;;;25.17;12.30;;;;;;;14.44;67.70;99948.09;5028775;28;20061;-74
2022/01/06 05:17:38;;;;;;;28.85;11.27;;;;;;;14.44;67.70;99944.53;5031992;28;20033;-74
2022/01/06 05:20:04;;;;;;;26.27;11.05;;;;;;;14.40;67.96;99949.44;5032255;28;20029;-74
2022/01/06 05:22:31;;;;;;;25.42;11.90;;;;;;;14.37;68.07;99962.47;5032061;28;20014;-74
2022/01/06 05:24:56;;;;;;;22.40;11.25;;;;;;;14.31;68.15;99965.81;5032442;28;20021;-74
2022/01/06 05:27:22;;;;;;;21.77;10.63;;;;;;;14.30;68.04;99964.09;5032601;28;20402;-76
2022/01/06 05:29:47;;;;;;;30.83;11.13;;;;;;;14.24;68.75;99967.47;5032496;28;20061;-74
2022/01/06 05:32:13;;;;;;;21.00;10.18;;;;;;;14.19;68.71;99967.94;5031906;28;20026;-74
2022/01/06 05:34:38;;;;;;;22.63;10.73;;;;;;;14.21;68.86;99965.09;5031456;28;20049;-74
2022/01/06 05:37:04;;;;;;;20.17;10.95;;;;;;;14.15;69.07;99958.47;5031848;28;20037;-74
2022/01/06 05:39:29;;;;;;;21.52;10.35;;;;;;;14.11;69.02;99957.97;5032041;28;20029;-74
2022/01/06 05:41:55;;;;;;;20.70;11.73;;;;;;;14.12;69.42;99961.50;5031612;28;20033;-74
2022/01/06 05:44:20;;;;;;;30.15;12.57;;;;;;;14.18;69.40;99969.81;5030204;28;20061;-74
2022/01/06 05:46:47;;;;;;;22.48;12.73;;;;;;;14.06;69.19;99963.03;5030748;28;20371;-74
2022/01/06 05:49:14;;;;;;;25.83;12.98;;;;;;;14.22;69.21;99988.44;5030330;28;20025;-74
2022/01/06 05:51:40;;;;;;;24.92;12.45;;;;;;;14.25;69.16;99988.91;5024586;28;20022;-74
2022/01/06 05:54:05;;;;;;;25.48;11.65;;;;;;;14.30;69.29;99991.16;5012901;28;20364;-74
2022/01/06 05:56:31;;;;;;;30.15;11.90;;;;;;;14.21;69.32;99982.16;5030567;28;20108;-74
2022/01/06 05:58:57;;;;;;;30.48;11.90;;;;;;;14.28;69.39;99987.78;5031411;28;20029;-74
2022/01/06 06:01:23;;;;;;;25.98;11.10;;;;;;;14.34;69.24;99987.16;5031776;28;20498;-73
2022/01/06 06:03:49;;;;;;;23.27;11.68;;;;;;;14.36;69.03;99985.13;5031686;28;20022;-73
2022/01/06 06:06:15;;;;;;;29.10;12.20;;;;;;;14.42;69.35;99987.16;5031367;28;20482;-73
2022/01/06 06:08:41;;;;;;;30.60;13.13;;;;;;;14.45;69.27;99994.94;5031089;28;20106;-73
2022/01/06 06:11:06;;;;;;;21.23;11.25;;;;;;;14.49;68.95;99997.19;5031290;28;20079;-73
2022/01/06 06:13:32;;;;;;;24.17;12.13;;;;;;;14.52;68.84;99991.44;5030862;28;20045;-73
2022/01/06 06:15:57;;;;;;;30.48;12.65;;;;;;;14.56;68.79;99991.91;5031926;28;20029;-73
2022/01/06 06:18:23;;;;;;;27.95;13.40;;;;;;;14.52;68.64;99986.03;5031716;28;20077;-73
2022/01/06 06:20:48;;;;;;;38.22;13.10;;;;;;;14.59;68.63;99991.59;5031289;28;20030;-73
2022/01/06 06:23:14;;;;;;;34.47;13.75;;;;;;;14.64;68.41;99990.09;5031637;28;20028;-74
2022/01/06 06:25:39;;;;;;;31.42;13.95;;;;;;;14.67;68.52;100005.16;5031589;28;20032;-74
2022/01/06 06:28:05;;;;;;;29.15;15.35;;;;;;;14.66;68.36;99995.34;5013596;28;20041;-73
2022/01/06 06:30:30;;;;;;;22.67;13.95;;;;;;;14.56;68.28;99979.25;5031532;28;20032;-75
2022/01/06 06:32:56;;;;;;;28.67;15.13;;;;;;;14.66;68.38;100004.31;5031038;28;20025;-73
2022/01/06 06:35:22;;;;;;;32.05;14.75;;;;;;;14.66;68.57;100000.75;5032069;28;20025;-73
2022/01/06 06:37:47;;;;;;;30.10;15.20;;;;;;;14.62;68.55;99993.97;5031036;28;20022;-73
2022/01/06 06:40:13;;;;;;;26.75;15.43;;;;;;;14.66;68.42;100004.31;5031093;28;20112;-75
2022/01/06 06:42:39;;;;;;;33.67;13.40;;;;;;;14.69;68.40;100003.13;5031581;28;20022;-73
2022/01/06 06:45:05;;;;;;;23.58;11.70;;;;;;;14.69;68.39;100003.13;5027320;28;20034;-74
2022/01/06 06:47:32;;;;;;;34.13;13.20;;;;;;;14.62;68.30;99996.66;5043845;28;20049;-73
2022/01/06 06:49:59;;;;;;;26.08;12.77;;;;;;;14.71;68.47;100006.50;5051282;28;20025;-75
2022/01/06 06:52:25;;;;;;;21.67;12.25;;;;;;;14.69;68.28;99997.72;5038331;28;20021;-74
2022/01/06 06:54:51;;;;;;;32.13;12.20;;;;;;;14.77;68.15;100016.66;5031114;28;20025;-73
2022/01/06 06:57:16;;;;;;;34.40;12.10;;;;;;;14.76;67.80;99996.03;5038378;28;20087;-73
2022/01/06 06:59:42;;;;;;;25.98;11.70;;;;;;;14.86;67.92;100004.81;5031493;28;20021;-73
2022/01/06 07:02:07;;;;;;;28.73;12.30;;;;;;;14.89;67.93;100011.78;5031247;28;20405;-74
2022/01/06 07:04:33;;;;;;;32.83;13.40;;;;;;;14.86;67.92;100004.81;5031562;28;20180;-74
2022/01/06 07:06:59;;;;;;;25.20;12.90;;;;;;;14.90;67.77;100016.19;5030959;28;20072;-74
2022/01/06 07:09:24;;;;;;;27.15;13.00;;;;;;;14.94;67.55;100018.41;5031021;28;20497;-74
2022/01/06 07:11:49;;;;;;;29.83;12.82;;;;;;;14.94;67.88;100015.69;5031265;28;20026;-74
2022/01/06 07:14:15;;;;;;;23.20;12.20;;;;;;;14.98;67.77;100017.03;5031729;28;20045;-74
2022/01/06 07:16:40;;;;;;;40.85;13.73;;;;;;;15.06;67.47;100022.47;5034936;28;20485;-74
2022/01/06 07:19:06;;;;;;;35.80;12.88;;;;;;;15.14;67.44;100022.47;5034278;28;20025;-75
2022/01/06 07:21:31;;;;;;;31.40;13.02;;;;;;;15.15;67.13;100024.16;5034055;28;20040;-74
2022/01/06 07:23:57;;;;;;;37.33;13.80;;;;;;;15.22;66.63;100019.78;5034774;28;20443;-74
2022/01/06 07:26:22;;;;;;;30.35;11.38;;;;;;;15.29;66.44;100021.81;5034187;28;20033;-74
2022/01/06 07:28:48;;;;;;;28.95;13.23;;;;;;;15.24;66.45;100015.03;5034893;28;20061;-74
2022/01/06 07:31:13;;;;;;;24.38;11.57;;;;;;;15.37;66.11;100024.50;5034831;28;20026;-74
2022/01/06 07:33:39;;;;;;;28.20;10.88;;;;;;;15.41;66.16;100023.97;5035382;28;20080;-74
2022/01/06 07:36:05;;;;;;;26.67;11.52;;;;;;;15.34;66.18;100014.84;5034835;28;20116;-74
2022/01/06 07:38:30;;;;;;;29.23;9.55;;;;;;;15.43;65.89;100016.53;5034618;28;20037;-74
2022/01/06 07:40:56;;;;;;;28.85;9.82;;;;;;;15.47;65.61;100019.75;5034969;28;20486;-75
2022/01/06 07:43:22;;;;;;;27.48;9.57;;;;;;;15.55;65.58;100019.78;5034757;28;20017;-75
2022/01/06 07:45:49;;;;;;;27.48;9.70;;;;;;;15.59;65.42;100021.13;5034108;28;20030;-73
2022/01/06 07:48:25;;;;;;;22.95;9.93;;;;;;;15.62;65.70;100021.63;5016193;28;20021;-74
2022/01/06 07:50:50;;;;;;;22.23;9.32;;;;;;;15.72;65.19;100016.00;5016205;28;20383;-74
2022/01/06 07:53:16;;;;;;;22.33;9.02;;;;;;;15.77;64.72;100021.78;5034132;28;20079;-74
2022/01/06 07:55:41;;;;;;;22.52;10.07;;;;;;;15.77;64.83;100021.78;5034430;28;20021;-74
2022/01/06 07:58:07;;;;;;;23.60;10.13;;;;;;;15.76;64.82;100017.34;5033769;28;20029;-74
2022/01/06 08:00:32;;;;;;;31.80;10.63;;;;;;;15.78;64.38;100002.59;5034163;28;20030;-73
2022/01/06 08:02:58;;;;;;;28.42;9.60;;;;;;;15.92;64.35;100022.75;5033578;28;20022;-74
2022/01/06 08:05:26;;;;;;;20.70;8.60;;;;;;;15.98;64.35;100024.78;5033860;28;20064;-73
2022/01/06 08:07:52;;;;;;;24.20;8.95;;;;;;;15.98;64.41;100027.47;5033648;28;20220;-74
2022/01/06 08:10:18;;;;;;;27.95;9.20;;;;;;;16.04;64.31;100034.06;5033626;28;20395;-73
2022/01/06 08:12:44;;;;;;;25.75;9.90;;;;;;;16.13;63.96;100033.88;5033843;28;20021;-73
2022/01/06 08:15:10;;;;;;;17.92;10.20;;;;;;;16.22;63.75;100038.25;5015426;28;20049;-74
2022/01/06 08:17:36;;;;;;;46.65;11.57;;;;;;;16.21;63.78;100036.53;5033137;28;20025;-73
2022/01/06 08:20:04;;;;;;;22.25;10.60;;;;;;;16.31;63.35;100029.06;5033307;28;20078;-74
2022/01/06 08:22:29;;;;;;;32.72;14.82;;;;;;;16.46;62.84;100037.28;5033505;28;20028;-73
2022/01/06 08:24:55;;;;;;;26.92;10.95;;;;;;;16.51;62.64;100028.63;5033176;28;20022;-73
2022/01/06 08:27:23;;;;;;;51.58;14.13;;;;;;;16.59;62.50;100036.75;5033286;28;20044;-74
2022/01/06 08:29:50;;;;;;;62.88;25.35;;;;;;;16.71;62.07;100038.03;5032691;28;20037;-73
2022/01/06 08:32:16;;;;;;;29.45;15.23;;;;;;;16.73;61.80;100030.56;5032645;28;20475;-73
2022/01/06 08:34:41;;;;;;;40.45;11.80;;;;;;;16.74;61.63;100021.41;5033208;28;20026;-73
2022/01/06 08:37:07;;;;;;;25.30;10.35;;;;;;;16.75;61.83;100021.22;5033057;28;20048;-73
2022/01/06 08:39:32;;;;;;;49.67;14.15;;;;;;;16.92;61.67;100030.09;5032498;28;20153;-73
2022/01/06 08:41:58;;;;;;;23.40;9.35;;;;;;;16.92;61.29;100016.53;5033134;28;20087;-74
2022/01/06 08:44:23;;;;;;;23.70;9.55;;;;;;;17.08;60.93;100029.16;5015373;28;20032;-74
2022/01/06 08:46:49;;;;;;;45.35;12.75;;;;;;;17.22;60.75;100028.34;5033027;28;20032;-74
2022/01/06 08:49:15;;;;;;;27.30;9.75;;;;;;;17.32;60.19;100037.97;5033150;28;20033;-74
2022/01/06 08:51:42;;;;;;;37.10;10.77;;;;;;;17.26;59.83;100014.22;5032545;28;20108;-74
2022/01/06 08:54:07;;;;;;;26.50;8.82;;;;;;;17.46;59.88;100033.56;5032350;28;20025;-73
2022/01/06 08:56:34;;;;;;;32.50;10.65;;;;;;;17.43;60.05;100029.34;5032652;28;20107;-73
2022/01/06 08:58:59;;;;;;;31.52;11.25;;;;;;;17.52;59.90;100029.31;5033031;28;20357;-73
2022/01/06 09:01:25;;;;;;;32.22;10.40;;;;;;;17.64;59.63;100023.28;5032731;28;20082;-74
2022/01/06 09:03:51;;;;;;;35.38;10.32;;;;;;;17.75;59.39;100027.41;5032248;28;20036;-73
2022/01/06 09:06:17;;;;;;;30.02;8.90;;;;;;;17.82;58.69;100025.63;5032717;28;20029;-73
2022/01/06 09:08:42;;;;;;;31.25;9.05;;;;;;;17.80;58.97;100024.97;5032669;28;20101;-73
2022/01/06 09:11:07;;;;;;;29.90;9.45;;;;;;;17.79;58.70;100009.69;5032721;28;20439;-73
2022/01/06 09:13:33;;;;;;;37.33;8.77;;;;;;;17.84;58.86;100015.41;5032349;28;20041;-73
2022/01/06 09:15:58;;;;;;;31.65;10.00;;;;;;;17.91;58.81;100005.47;5032384;28;20021;-74
2022/01/06 09:18:24;;;;;;;63.50;11.43;;;;;;;18.01;58.77;100008.75;5032267;28;20108;-74
2022/01/06 09:20:50;;;;;;;30.92;9.25;;;;;;;18.07;58.67;100015.34;5032079;28;20100;-74
2022/01/06 09:23:15;;;;;;;31.63;8.95;;;;;;;18.12;58.33;100010.16;5014717;28;20021;-74
2022/01/06 09:25:41;;;;;;;29.60;8.57;;;;;;;18.18;57.82;100004.81;5032588;28;20025;-74
2022/01/06 09:28:06;;;;;;;26.88;8.70;;;;;;;18.20;57.72;99994.56;5029100;28;20447;-74
2022/01/06 09:30:32;;;;;;;26.83;8.43;;;;;;;18.24;56.88;99995.03;5018779;28;20022;-76
2022/01/06 09:32:58;;;;;;;21.20;7.72;;;;;;;18.22;56.73;99994.41;5031592;28;20025;-75
2022/01/06 09:35:23;;;;;;;25.80;8.18;;;;;;;18.34;56.66;100001.03;5032123;28;20025;-74
2022/01/06 09:37:49;;;;;;;29.50;7.32;;;;;;;18.38;56.23;99996.88;5031409;28;20043;-74
2022/01/06 09:40:15;;;;;;;24.33;6.93;;;;;;;18.36;56.06;99988.91;5031815;28;20056;-74
2022/01/06 09:42:42;;;;;;;18.15;6.38;;;;;;;18.41;56.06;99986.47;5031654;28;20121;-74
2022/01/06 09:45:11;;;;;;;26.45;7.97;;;;;;;18.53;55.63;99983.31;5031459;28;20391;-74
2022/01/06 09:47:38;;;;;;;23.85;7.95;;;;;;;18.61;54.74;99991.34;5006647;28;20064;-74
2022/01/06 09:50:05;;;;;;;32.20;8.48;;;;;;;18.64;54.84;99983.63;5031855;28;20043;-74
2022/01/06 09:52:30;;;;;;;22.13;7.80;;;;;;;18.60;54.78;99989.66;5023817;28;20025;-75
2022/01/06 09:54:56;;;;;;;13.27;6.40;;;;;;;18.66;53.94;99989.72;5008262;28;20375;-74
2022/01/06 09:57:21;;;;;;;18.83;7.10;;;;;;;18.71;53.37;99991.88;5031072;28;20478;-74
2022/01/06 09:59:48;;;;;;;12.68;5.72;;;;;;;18.66;52.85;99986.16;5031424;28;20021;-74
2022/01/06 10:02:16;;;;;;;22.38;6.03;;;;;;;18.68;53.09;99986.81;5031339;28;20429;-74
2022/01/06 10:04:56;;;;;;;19.35;6.63;;;;;;;18.77;52.89;99996.56;5031707;28;20026;-74
2022/01/06 10:07:22;;;;;;;14.23;5.97;;;;;;;18.81;52.73;99997.84;5032155;28;20059;-74
2022/01/06 10:09:50;;;;;;;15.52;5.95;;;;;;;18.80;52.15;99996.19;5032137;28;20049;-75
2022/01/06 10:12:16;;;;;;;18.38;6.05;;;;;;;18.86;51.86;99985.34;5031726;28;20025;-74
2022/01/06 10:14:46;;;;;;;19.05;7.68;;;;;;;18.95;51.74;99991.53;5031092;28;20050;-73
2022/01/06 10:17:17;;;;;;;14.88;6.22;;;;;;;18.97;51.27;99973.06;5031809;28;20022;-74
2022/01/06 10:19:44;;;;;;;18.08;6.72;;;;;;;19.00;51.03;99975.41;5031670;28;20026;-74
2022/01/06 10:22:19;;;;;;;13.63;5.97;;;;;;;19.04;51.07;99979.44;5031788;28;20021;-74
2022/01/06 10:24:46;;;;;;;25.67;6.40;;;;;;;19.07;51.04;99976.34;5031552;28;20682;-73
2022/01/06 10:27:15;;;;;;;21.92;7.43;;;;;;;19.15;50.87;99984.38;5013659;28;20348;-74
2022/01/06 10:29:43;;;;;;;18.77;6.78;;;;;;;19.26;50.30;99980.28;5028939;28;20024;-74
2022/01/06 10:32:17;;;;;;;19.60;5.90;;;;;;;19.25;49.84;99963.06;5030883;28;20610;-73
2022/01/06 10:34:48;;;;;;;22.63;5.50;;;;;;;19.36;49.63;99978.88;5030886;28;20030;-75
2022/01/06 10:37:30;;;;;;;15.52;5.35;;;;;;;19.39;49.28;99972.19;5031003;28;20021;-73
2022/01/06 10:39:59;;;;;;;27.45;6.20;;;;;;;19.30;49.09;99976.94;5013685;28;20037;-73
2022/01/06 10:42:29;;;;;;;13.23;5.78;;;;;;;19.35;49.09;99969.03;5051355;28;20032;-73
2022/01/06 10:45:00;;;;;;;19.02;6.78;;;;;;;19.33;49.19;99971.09;5051055;28;20402;-75
2022/01/06 10:47:28;;;;;;;14.65;5.80;;;;;;;19.37;49.17;99964.22;5038696;28;20814;-75
2022/01/06 10:50:06;;;;;;;18.20;6.18;;;;;;;19.43;48.53;99962.63;5034478;28;20090;-76
2022/01/06 10:52:31;;;;;;;24.25;6.50;;;;;;;19.46;48.81;99965.78;5035062;28;20033;-74
2022/01/06 10:55:08;;;;;;;20.73;6.68;;;;;;;19.47;48.72;99958.47;5034950;28;20471;-74
2022/01/06 10:57:38;;;;;;;30.13;6.85;;;;;;;19.47;48.65;99950.28;5034784;28;20030;-74
2022/01/06 11:00:05;;;;;;;17.45;5.85;;;;;;;19.46;48.52;99957.63;5017264;28;20116;-74
2022/01/06 11:02:30;;;;;;;14.23;6.05;;;;;;;19.52;48.30;99947.78;5034884;28;20033;-74
2022/01/06 11:04:56;;;;;;;23.23;6.53;;;;;;;19.46;47.96;99949.44;5034658;28;20040;-74
2022/01/06 11:07:21;;;;;;;15.90;6.25;;;;;;;19.46;47.77;99952.16;5034546;28;20032;-74
2022/01/06 11:09:49;;;;;;;24.23;7.28;;;;;;;19.49;47.64;99959.94;5034787;28;20025;-74
2022/01/06 11:12:28;;;;;;;20.92;7.45;;;;;;;19.37;47.62;99947.00;5034529;28;20083;-74
2022/01/06 11:14:54;;;;;;;22.40;6.88;;;;;;;19.42;47.21;99945.41;5034681;28;20061;-75
2022/01/06 11:17:21;;;;;;;17.40;6.47;;;;;;;19.39;47.37;99932.16;5034492;28;20036;-74
2022/01/06 11:19:50;;;;;;;17.27;6.63;;;;;;;19.49;47.18;99943.56;5032184;28;20025;-74
2022/01/06 11:22:23;;;;;;;23.13;6.57;;;;;;;19.58;46.88;99940.69;5035163;28;20053;-74
2022/01/06 11:25:03;;;;;;;15.57;5.88;;;;;;;19.66;47.09;99937.81;5034892;28;20100;-75
2022/01/06 11:27:38;;;;;;;13.98;5.78;;;;;;;19.82;47.06;99937.47;5034914;28;20029;-75